createdAt,value
2018-07-03T06:04:55.631Z,3276.00
2018-07-03T06:05:55.459Z,3288.00
2018-07-03T06:07:00.694Z,3304.00
2018-07-03T06:10:09.059Z,3324.00
2018-07-03T06:12:29.217Z,3364.00
2018-07-03T06:14:55.951Z,3388.00
2018-07-03T06:16:18.980Z,3392.00
2018-07-03T06:16:56.591Z,3404.00
2018-07-03T06:17:56.663Z,3416.00
2018-07-03T06:18:58.516Z,3424.00
2018-07-03T06:19:58.887Z,3432.00
2018-07-03T06:21:11.731Z,3448.00
2018-07-03T06:22:02.101Z,3468.00
2018-07-03T06:22:57.296Z,3484.00
2018-07-03T06:25:14.839Z,3508.00
2018-07-03T06:26:02.361Z,3528.00
2018-07-03T06:27:01.291Z,3548.00
2018-07-03T06:27:59.232Z,3564.00
2018-07-03T06:29:17.647Z,3588.00
2018-07-03T06:31:09.584Z,3632.00
2018-07-03T07:05:29.418Z,4036.00
2018-07-03T07:06:30.219Z,4048.00
2018-07-03T07:07:30.362Z,4052.00
2018-07-03T07:08:32.617Z,4068.00
2018-07-03T07:09:30.466Z,4076.00
2018-07-03T07:10:31.295Z,4092.00
2018-07-03T07:11:30.805Z,4104.00
2018-07-03T07:16:26.520Z,4148.00
2018-07-03T07:16:47.935Z,4148.00
2018-07-03T07:23:34.907Z,4224.00
2018-07-03T07:24:41.435Z,4236.00
2018-07-03T07:26:43.532Z,4260.00
2018-07-03T07:27:44.954Z,4264.00
2018-07-03T07:31:36.722Z,4304.00
2018-07-03T07:32:39.166Z,4324.00
2018-07-03T07:33:37.603Z,4336.00
2018-07-03T07:37:32.200Z,4384.00
2018-07-03T07:39:02.071Z,4384.00
2018-07-03T07:39:31.521Z,4400.00
2018-07-03T07:41:36.990Z,4408.00
2018-07-03T07:42:03.391Z,4432.00
2018-07-03T07:43:42.304Z,4444.00
2018-07-03T07:44:46.991Z,4456.00
2018-07-03T07:45:43.122Z,4456.00
2018-07-03T07:48:12.808Z,4488.00
2018-07-03T07:54:00.395Z,4536.00
2018-07-03T07:56:42.312Z,4556.00
2018-07-03T07:57:04.847Z,4568.00
2018-07-03T08:06:31.164Z,4660.00
2018-07-03T08:18:52.307Z,5248.00
2018-07-03T08:19:49.108Z,5396.00
2018-07-03T08:26:49.544Z,5904.00
2018-07-03T08:27:46.318Z,5912.00
2018-07-03T08:28:46.872Z,5928.00
2018-07-03T08:29:47.149Z,5940.00
2018-07-03T08:30:45.027Z,5932.00
2018-07-03T08:31:45.154Z,5912.00
2018-07-03T08:32:45.303Z,5784.00
2018-07-03T08:33:45.469Z,5568.00
2018-07-03T08:34:45.669Z,5404.00
2018-07-03T08:35:45.833Z,5352.00
2018-07-03T08:36:46.014Z,5312.00
2018-07-03T08:37:46.084Z,5248.00
2018-07-03T08:38:46.311Z,5136.00
2018-07-03T08:39:46.583Z,5096.00
2018-07-03T08:40:46.771Z,5108.00
2018-07-03T08:41:46.987Z,5124.00
2018-07-03T08:42:47.135Z,5140.00
2018-07-03T08:43:47.277Z,5160.00
2018-07-03T08:44:47.432Z,5180.00
2018-07-03T08:45:47.649Z,5208.00
2018-07-03T08:46:47.788Z,5236.00
2018-07-03T08:47:47.940Z,5260.00
2018-07-03T08:48:48.198Z,5280.00
2018-07-03T08:49:48.317Z,5316.00
2018-07-03T08:50:48.527Z,5332.00
2018-07-03T08:51:48.740Z,5364.00
2018-07-03T08:52:48.910Z,5412.00
2018-07-03T08:53:49.016Z,5436.00
2018-07-03T08:54:49.265Z,5448.00
2018-07-03T08:55:49.421Z,5484.00
2018-07-03T08:56:49.616Z,5504.00
2018-07-03T08:57:49.767Z,5552.00
2018-07-03T08:58:49.922Z,5584.00
2018-07-03T08:59:50.013Z,5612.00
2018-07-03T09:00:50.273Z,5656.00
2018-07-03T09:01:50.385Z,5696.00
2018-07-03T09:02:50.660Z,5720.00
2018-07-03T09:03:50.847Z,5760.00
2018-07-03T09:04:51.043Z,5804.00
2018-07-03T09:05:51.241Z,5844.00
2018-07-03T09:06:51.368Z,5888.00
2018-07-03T09:07:51.592Z,5928.00
2018-07-03T09:08:51.723Z,5964.00
2018-07-03T09:09:51.918Z,6004.00
2018-07-03T09:10:52.112Z,6032.00
2018-07-03T09:11:52.229Z,6068.00
2018-07-03T09:12:52.475Z,6100.00
2018-07-03T09:13:52.634Z,6148.00
2018-07-03T09:14:52.741Z,6160.00
2018-07-03T09:15:52.995Z,6192.00
2018-07-03T09:16:53.155Z,6208.00
2018-07-03T09:17:53.380Z,6224.00
2018-07-03T09:18:53.567Z,6240.00
2018-07-03T09:19:53.739Z,6216.00
2018-07-03T09:20:53.924Z,6248.00
2018-07-03T09:21:55.022Z,6248.00
2018-07-03T09:22:54.272Z,6256.00
2018-07-03T09:23:54.488Z,6252.00
2018-07-03T09:24:54.694Z,6248.00
2018-07-03T09:25:54.807Z,6248.00
2018-07-03T09:26:54.932Z,6232.00
2018-07-03T09:27:55.126Z,6244.00
2018-07-03T09:28:55.274Z,6240.00
2018-07-03T09:29:55.515Z,6220.00
2018-07-03T09:30:55.757Z,6204.00
2018-07-03T09:31:55.860Z,6220.00
2018-07-03T09:32:56.039Z,6204.00
2018-07-03T09:33:56.644Z,6212.00
2018-07-03T09:34:56.361Z,6200.00
2018-07-03T09:35:56.500Z,6188.00
2018-07-03T09:36:56.685Z,6180.00
2018-07-03T09:37:56.906Z,6160.00
2018-07-03T09:38:57.081Z,6140.00
2018-07-03T09:39:57.199Z,6148.00
2018-07-03T09:40:57.362Z,6128.00
2018-07-03T09:41:57.652Z,6132.00
2018-07-03T09:42:57.808Z,6136.00
2018-07-03T09:43:57.980Z,6128.00
2018-07-03T09:44:58.096Z,6116.00
2018-07-03T09:45:58.197Z,6104.00
2018-07-03T09:46:58.406Z,6112.00
2018-07-03T09:47:58.585Z,6116.00
2018-07-03T09:48:58.796Z,6124.00
2018-07-03T09:49:59.113Z,6128.00
2018-07-03T09:50:59.156Z,6136.00
2018-07-03T09:51:59.409Z,6136.00
2018-07-03T09:52:59.954Z,6148.00
2018-07-03T09:53:59.915Z,6156.00
2018-07-03T09:55:00.185Z,6168.00
2018-07-03T09:56:00.353Z,6188.00
2018-07-03T09:57:00.421Z,6188.00
2018-07-03T09:58:00.620Z,6204.00
2018-07-03T09:59:01.013Z,6280.00
2018-07-03T10:00:01.033Z,6284.00
2018-07-03T10:01:01.004Z,6288.00
2018-07-03T10:02:01.399Z,6328.00
2018-07-03T10:03:01.545Z,6336.00
2018-07-03T10:04:01.709Z,6348.00
2018-07-03T10:05:02.615Z,6384.00
2018-07-03T10:06:02.282Z,6436.00
2018-07-03T10:07:02.325Z,6540.00
2018-07-03T10:08:02.636Z,6804.00
2018-07-03T10:09:02.636Z,10676.00
2018-07-03T10:10:02.869Z,16800.00
2018-07-03T10:11:03.054Z,23168.00
2018-07-03T10:12:03.187Z,27872.00
2018-07-03T10:13:03.416Z,29760.00
2018-07-03T10:14:03.629Z,28544.00
2018-07-03T10:15:04.109Z,29376.00
2018-07-03T10:16:04.313Z,30112.00
2018-07-03T10:17:04.604Z,29824.00
2018-07-03T10:18:04.607Z,31712.00
2018-07-03T10:19:04.558Z,32224.00
2018-07-03T10:20:04.686Z,30656.00
2018-07-03T10:21:04.886Z,29632.00
2018-07-03T10:22:04.963Z,31840.00
2018-07-03T10:23:05.323Z,32896.00
2018-07-03T10:24:05.405Z,32320.00
2018-07-03T10:25:05.543Z,32736.00
2018-07-03T10:26:05.821Z,33888.00
2018-07-03T10:27:05.861Z,35808.00
2018-07-03T10:28:06.245Z,37472.00
2018-07-03T10:29:06.471Z,38656.00
2018-07-03T10:30:06.448Z,38016.00
2018-07-03T10:31:06.765Z,37920.00
2018-07-03T10:32:07.118Z,38464.00
2018-07-03T10:33:07.057Z,37216.00
2018-07-03T10:34:07.292Z,36832.00
2018-07-03T10:35:07.507Z,38272.00
2018-07-03T10:36:07.668Z,38144.00
2018-07-03T10:37:07.834Z,38304.00
2018-07-03T10:38:07.963Z,38912.00
2018-07-03T10:39:08.288Z,38336.00
2018-07-03T10:40:08.388Z,37888.00
2018-07-03T10:41:08.653Z,39584.00
2018-07-03T10:42:08.828Z,40000.00
2018-07-03T10:43:08.915Z,41120.00
2018-07-03T10:44:09.194Z,42400.00
2018-07-03T10:45:09.348Z,43872.00
2018-07-03T10:46:09.451Z,45152.00
2018-07-03T10:47:09.592Z,44640.00
2018-07-03T10:48:09.782Z,45024.00
2018-07-03T10:49:10.040Z,45056.00
2018-07-03T10:50:10.539Z,44352.00
2018-07-03T10:51:10.483Z,43936.00
2018-07-03T10:52:10.636Z,43808.00
2018-07-03T10:53:10.795Z,45312.00
2018-07-03T10:54:11.050Z,46432.00
2018-07-03T10:55:11.234Z,45504.00
2018-07-03T10:56:11.469Z,45888.00
2018-07-03T10:57:11.661Z,45920.00
2018-07-03T10:58:11.901Z,45600.00
2018-07-03T10:59:12.145Z,44960.00
2018-07-03T11:00:12.262Z,45120.00
2018-07-03T11:01:12.232Z,46240.00
2018-07-03T11:02:12.541Z,47200.00
2018-07-03T11:03:12.670Z,48096.00
2018-07-03T11:04:12.910Z,48576.00
2018-07-03T11:05:13.035Z,50080.00
2018-07-03T11:06:14.274Z,52128.00
2018-07-03T11:07:13.525Z,53248.00
2018-07-03T11:08:13.468Z,53696.00
2018-07-03T11:09:13.676Z,54624.00
2018-07-03T11:10:13.803Z,54080.00
2018-07-03T11:11:14.084Z,53472.00
2018-07-03T11:12:14.337Z,53856.00
2018-07-03T11:13:14.507Z,54112.00
2018-07-03T11:14:14.701Z,54368.00
2018-07-03T11:15:14.777Z,54080.00
2018-07-03T11:16:14.989Z,52480.00
2018-07-03T11:17:15.194Z,50848.00
2018-07-03T11:18:15.319Z,51264.00
2018-07-03T11:19:15.601Z,53504.00
2018-07-03T11:20:15.855Z,55104.00
2018-07-03T11:21:15.946Z,55328.00
2018-07-03T11:22:16.112Z,56160.00
2018-07-03T11:23:16.308Z,58496.00
2018-07-03T11:24:16.429Z,59552.00
2018-07-03T11:25:16.729Z,59616.00
2018-07-03T11:26:16.800Z,60064.00
2018-07-03T11:27:17.117Z,59360.00
2018-07-03T11:28:17.210Z,59680.00
2018-07-03T11:29:17.719Z,60992.00
2018-07-03T11:30:17.579Z,61248.00
2018-07-03T11:31:17.742Z,60608.00
2018-07-03T11:32:17.856Z,59584.00
2018-07-03T11:33:18.034Z,59392.00
2018-07-03T11:34:18.292Z,60160.00
2018-07-03T11:35:18.953Z,60416.00
2018-07-03T11:36:18.603Z,59872.00
2018-07-03T11:37:18.747Z,58272.00
2018-07-03T11:38:19.025Z,57984.00
2018-07-03T11:39:19.215Z,58368.00
2018-07-03T11:40:19.510Z,57696.00
2018-07-03T11:41:19.738Z,58272.00
2018-07-03T11:42:20.923Z,57888.00
2018-07-03T11:43:21.208Z,57024.00
2018-07-03T11:44:20.253Z,58720.00
2018-07-03T11:45:20.462Z,58752.00
2018-07-03T11:46:20.646Z,58624.00
2018-07-03T11:47:20.793Z,59456.00
2018-07-03T11:48:21.044Z,60992.00
2018-07-03T11:49:24.497Z,60320.00
2018-07-03T11:50:21.837Z,59232.00
2018-07-03T11:51:21.576Z,60192.00
2018-07-03T11:52:22.067Z,60640.00
2018-07-03T11:53:22.288Z,58368.00
2018-07-03T11:54:22.236Z,55648.00
2018-07-03T11:55:22.726Z,55328.00
2018-07-03T11:56:22.647Z,57984.00
2018-07-03T11:57:22.706Z,58784.00
2018-07-03T11:58:23.154Z,58048.00
2018-07-03T11:59:23.185Z,57696.00
2018-07-03T12:00:23.372Z,56640.00
2018-07-03T12:01:23.625Z,55296.00
2018-07-03T12:02:23.646Z,56160.00
2018-07-03T12:03:23.948Z,59136.00
2018-07-03T12:04:24.663Z,60672.00
2018-07-03T12:05:24.452Z,59968.00
2018-07-03T12:06:24.238Z,59200.00
2018-07-03T12:07:24.489Z,60960.00
2018-07-03T12:08:24.632Z,63328.00
2018-07-03T12:09:25.080Z,61376.00
2018-07-03T12:10:25.144Z,58944.00
2018-07-03T12:11:25.669Z,60800.00
2018-07-03T12:12:25.619Z,63296.00
2018-07-03T12:13:25.796Z,62272.00
2018-07-03T12:14:26.135Z,61824.00
2018-07-03T12:15:26.411Z,63936.00
2018-07-03T12:16:26.340Z,62208.00
2018-07-03T12:17:26.545Z,57472.00
2018-07-03T12:18:26.838Z,57472.00
2018-07-03T12:19:26.966Z,59456.00
2018-07-03T12:20:27.162Z,58592.00
2018-07-03T12:21:27.255Z,56224.00
2018-07-03T12:22:27.432Z,57760.00
2018-07-03T12:23:27.667Z,60576.00
2018-07-03T12:24:27.950Z,61888.00
2018-07-03T12:25:28.037Z,60160.00
2018-07-03T12:26:28.289Z,60320.00
2018-07-03T12:27:28.447Z,64320.00
2018-07-03T12:28:28.561Z,65632.00
2018-07-03T12:29:28.715Z,63520.00
2018-07-03T12:30:29.114Z,61824.00
2018-07-03T12:31:30.417Z,61664.00
2018-07-03T12:32:30.176Z,61408.00
2018-07-03T12:33:29.583Z,65280.00
2018-07-03T12:34:29.734Z,66432.00
2018-07-03T12:35:30.021Z,65728.00
2018-07-03T12:36:30.134Z,65536.00
2018-07-03T12:37:30.383Z,66816.00
2018-07-03T12:38:30.688Z,66656.00
2018-07-03T12:39:30.850Z,63968.00
2018-07-03T12:40:30.994Z,66592.00
2018-07-03T12:41:31.198Z,71104.00
2018-07-03T12:42:31.294Z,64640.00
2018-07-03T12:43:31.564Z,57984.00
2018-07-03T12:44:31.770Z,68864.00
2018-07-03T12:45:32.149Z,81568.00
2018-07-03T12:46:32.111Z,69696.00
2018-07-03T12:47:32.375Z,51136.00
2018-07-03T12:48:32.486Z,54592.00
2018-07-03T12:49:32.672Z,71296.00
2018-07-03T12:50:32.862Z,68032.00
2018-07-03T12:51:33.092Z,53088.00
2018-07-03T12:52:33.281Z,51296.00
2018-07-03T12:53:33.441Z,59168.00
2018-07-03T12:54:33.617Z,61856.00
2018-07-03T12:55:33.816Z,58464.00
2018-07-03T12:56:34.036Z,55104.00
2018-07-03T12:57:34.100Z,53024.00
2018-07-03T12:58:34.354Z,53568.00
2018-07-03T12:59:34.552Z,53536.00
2018-07-03T13:00:34.659Z,57248.00
2018-07-03T13:01:34.870Z,64480.00
2018-07-03T13:02:35.121Z,67296.00
2018-07-03T13:03:35.291Z,64384.00
2018-07-03T13:04:35.405Z,62304.00
2018-07-03T13:05:35.596Z,62272.00
2018-07-03T13:06:35.842Z,60608.00
2018-07-03T13:07:36.038Z,64096.00
2018-07-03T13:08:36.253Z,68608.00
2018-07-03T13:09:36.374Z,71456.00
2018-07-03T13:10:36.586Z,70304.00
2018-07-03T13:11:36.700Z,66176.00
2018-07-03T13:12:36.908Z,64096.00
2018-07-03T13:13:37.114Z,64704.00
2018-07-03T13:14:37.300Z,68000.00
2018-07-03T13:15:37.479Z,70272.00
2018-07-03T13:16:37.690Z,67136.00
2018-07-03T13:17:37.858Z,60896.00
2018-07-03T13:18:37.997Z,61152.00
2018-07-03T13:19:38.282Z,67328.00
2018-07-03T13:20:38.508Z,70304.00
2018-07-03T13:21:38.722Z,69920.00
2018-07-03T13:22:38.929Z,70560.00
2018-07-03T13:23:39.029Z,70528.00
2018-07-03T13:24:39.262Z,67840.00
2018-07-03T13:25:39.352Z,66944.00
2018-07-03T13:26:39.565Z,70048.00
2018-07-03T13:27:39.794Z,72416.00
2018-07-03T13:28:40.010Z,71072.00
2018-07-03T13:29:40.110Z,69088.00
2018-07-03T13:30:40.331Z,69120.00
2018-07-03T13:31:40.571Z,68096.00
2018-07-03T13:32:40.740Z,66880.00
2018-07-03T13:33:40.905Z,66336.00
2018-07-03T13:34:41.034Z,66112.00
2018-07-03T13:35:41.235Z,67232.00
2018-07-03T13:36:41.440Z,69984.00
2018-07-03T13:37:41.572Z,72768.00
2018-07-03T13:38:41.816Z,69376.00
2018-07-03T13:39:42.031Z,62592.00
2018-07-03T13:40:42.182Z,63776.00
2018-07-03T13:41:42.359Z,70624.00
2018-07-03T13:42:42.607Z,71712.00
2018-07-03T13:43:42.775Z,67168.00
2018-07-03T13:44:42.893Z,64256.00
2018-07-03T13:45:43.191Z,64160.00
2018-07-03T13:46:43.374Z,64672.00
2018-07-03T13:47:43.532Z,64256.00
2018-07-03T13:48:43.679Z,62624.00
2018-07-03T13:49:43.837Z,57152.00
2018-07-03T13:50:44.085Z,52192.00
2018-07-03T13:51:44.263Z,58464.00
2018-07-03T13:52:44.413Z,66944.00
2018-07-03T13:53:44.663Z,69440.00
2018-07-03T13:54:44.887Z,70624.00
2018-07-03T13:55:45.072Z,71360.00
2018-07-03T13:56:45.341Z,63936.00
2018-07-03T13:57:45.430Z,58720.00
2018-07-03T13:58:45.653Z,60544.00
2018-07-03T13:59:45.997Z,62208.00
2018-07-03T14:00:46.029Z,59584.00
2018-07-03T14:01:46.322Z,57248.00
2018-07-03T14:02:46.471Z,59840.00
2018-07-03T14:03:46.576Z,62752.00
2018-07-03T14:04:46.783Z,63776.00
2018-07-03T14:05:46.963Z,65600.00
2018-07-03T14:06:47.206Z,66176.00
2018-07-03T14:07:47.470Z,65408.00
2018-07-03T14:08:47.923Z,65792.00
2018-07-03T14:17:19.053Z,64640.00
2018-07-03T14:18:13.496Z,65248.00
2018-07-03T14:19:02.120Z,66144.00
2018-07-03T14:40:25.178Z,52256.00
2018-07-03T14:40:41.271Z,56928.00
2018-07-03T14:41:18.250Z,60128.00
2018-07-03T14:42:18.240Z,59968.00
2018-07-03T14:43:18.531Z,57408.00
2018-07-03T14:44:18.496Z,53376.00
2018-07-03T14:45:18.975Z,54528.00
2018-07-03T14:46:18.991Z,59872.00
2018-07-03T14:47:19.166Z,59392.00
2018-07-03T14:48:19.759Z,55136.00
2018-07-03T14:49:19.655Z,54240.00
2018-07-03T14:50:19.964Z,56800.00
2018-07-03T14:51:19.884Z,58208.00
2018-07-03T14:52:20.325Z,58944.00
2018-07-03T14:53:20.376Z,56384.00
2018-07-03T14:54:20.470Z,52832.00
2018-07-03T14:55:20.503Z,52704.00
2018-07-03T14:56:20.825Z,55584.00
2018-07-03T14:57:21.086Z,57024.00
2018-07-03T14:58:21.268Z,56160.00
2018-07-03T14:59:21.664Z,56544.00
2018-07-03T15:00:21.685Z,58112.00
2018-07-03T15:01:21.962Z,55072.00
2018-07-03T15:02:22.139Z,51584.00
2018-07-03T15:03:22.677Z,50336.00
2018-07-03T15:04:22.871Z,52320.00
2018-07-03T15:05:22.711Z,55072.00
2018-07-03T15:06:23.062Z,57472.00
2018-07-03T15:07:23.214Z,53280.00
2018-07-03T15:08:23.604Z,47040.00
2018-07-03T15:09:23.608Z,46080.00
2018-07-03T15:10:23.944Z,48224.00
2018-07-03T15:11:24.158Z,49472.00
2018-07-03T15:12:24.401Z,52320.00
2018-07-03T15:13:24.418Z,51968.00
2018-07-03T15:14:24.723Z,46240.00
2018-07-03T15:15:24.853Z,43712.00
2018-07-03T15:16:25.064Z,50944.00
2018-07-03T15:17:25.268Z,55104.00
2018-07-03T15:18:25.373Z,49536.00
2018-07-03T15:19:25.539Z,45856.00
2018-07-03T15:20:26.257Z,49376.00
2018-07-03T15:21:25.851Z,51264.00
2018-07-03T15:22:26.166Z,49632.00
2018-07-03T15:23:26.407Z,49600.00
2018-07-03T15:24:26.491Z,49728.00
2018-07-03T15:25:26.889Z,48800.00
2018-07-03T15:26:27.285Z,47264.00
2018-07-03T15:27:27.343Z,48064.00
2018-07-03T15:28:27.441Z,47456.00
2018-07-03T15:29:27.604Z,47232.00
2018-07-03T15:30:28.013Z,46528.00
2018-07-03T15:31:27.926Z,45280.00
2018-07-03T15:32:27.957Z,43264.00
2018-07-03T15:33:28.307Z,43008.00
2018-07-03T15:34:28.495Z,42912.00
2018-07-03T15:35:28.623Z,41856.00
2018-07-03T15:36:28.753Z,43776.00
2018-07-03T15:37:29.038Z,44512.00
2018-07-03T15:38:29.293Z,42208.00
2018-07-03T15:39:29.627Z,42112.00
2018-07-03T15:40:29.527Z,43680.00
2018-07-03T15:41:29.922Z,42656.00
2018-07-03T15:42:30.179Z,41536.00
2018-07-03T15:43:30.439Z,43840.00
2018-07-03T15:44:30.784Z,43808.00
2018-07-03T15:45:30.634Z,39840.00
2018-07-03T15:46:30.948Z,41728.00
2018-07-03T15:47:31.109Z,44160.00
2018-07-03T15:48:31.048Z,39200.00
2018-07-03T15:49:31.123Z,38592.00
2018-07-03T15:50:31.387Z,40384.00
2018-07-03T15:51:31.550Z,38240.00
2018-07-03T15:52:31.805Z,37856.00
2018-07-03T15:53:31.909Z,39488.00
2018-07-03T15:54:32.120Z,39264.00
2018-07-03T15:55:32.238Z,37792.00
2018-07-03T15:56:32.464Z,38144.00
2018-07-03T15:57:32.730Z,37952.00
2018-07-03T15:58:32.858Z,37888.00
2018-07-03T15:59:33.087Z,38304.00
2018-07-03T16:00:33.220Z,37824.00
2018-07-03T16:01:33.421Z,36768.00
2018-07-03T16:02:33.638Z,32832.00
2018-07-03T16:03:33.727Z,32960.00
2018-07-03T16:04:33.997Z,35520.00
2018-07-03T16:05:34.168Z,29440.00
2018-07-03T16:06:34.273Z,32608.00
2018-07-03T16:07:34.680Z,33344.00
2018-07-03T16:08:34.739Z,30208.00
2018-07-03T16:09:34.969Z,35840.00
2018-07-03T16:10:35.081Z,33440.00
2018-07-03T16:11:35.330Z,32576.00
2018-07-03T16:12:35.461Z,34112.00
2018-07-03T16:13:35.651Z,32416.00
2018-07-03T16:14:35.828Z,33408.00
2018-07-03T16:15:35.947Z,33280.00
2018-07-03T16:16:36.165Z,32224.00
2018-07-03T16:17:36.319Z,30848.00
2018-07-03T16:18:36.510Z,31808.00
2018-07-03T16:19:36.649Z,32032.00
2018-07-03T16:20:36.816Z,28352.00
2018-07-03T16:21:37.025Z,29248.00
2018-07-03T16:22:37.172Z,30432.00
2018-07-03T16:23:37.362Z,28288.00
2018-07-03T16:24:37.530Z,27840.00
2018-07-03T16:25:37.803Z,30240.00
2018-07-03T16:26:37.898Z,29632.00
2018-07-03T16:27:38.110Z,28192.00
2018-07-03T16:28:38.287Z,28032.00
2018-07-03T16:29:38.493Z,28128.00
2018-07-03T16:30:38.658Z,27648.00
2018-07-03T16:31:38.756Z,25824.00
2018-07-03T16:32:39.066Z,26400.00
2018-07-03T16:33:39.158Z,27136.00
2018-07-03T16:34:39.366Z,25408.00
2018-07-03T16:35:39.549Z,24224.00
2018-07-03T16:36:39.775Z,24512.00
2018-07-03T16:37:39.945Z,24704.00
2018-07-03T16:38:40.205Z,24992.00
2018-07-03T16:39:40.364Z,24128.00
2018-07-03T16:40:40.529Z,23520.00
2018-07-03T16:41:40.628Z,20416.00
2018-07-03T16:42:40.826Z,20288.00
2018-07-03T16:43:41.058Z,19712.00
2018-07-03T16:44:41.216Z,19072.00
2018-07-03T16:45:41.321Z,19680.00
2018-07-03T16:46:41.563Z,19104.00
2018-07-03T16:47:41.690Z,19200.00
2018-07-03T16:48:41.892Z,16832.00
2018-07-03T16:49:42.075Z,11376.00
2018-07-03T16:50:42.305Z,7544.00
2018-07-03T16:51:42.461Z,6608.00
2018-07-03T16:52:42.708Z,5004.00
2018-07-03T16:53:42.779Z,4968.00
2018-07-03T16:54:43.018Z,4268.00
2018-07-03T16:55:43.165Z,3656.00
2018-07-03T16:56:43.313Z,3628.00
2018-07-03T16:57:43.511Z,3604.00
2018-07-03T16:58:43.785Z,3592.00
2018-07-03T16:59:43.881Z,3588.00
2018-07-03T17:00:44.134Z,3664.00
2018-07-03T17:01:44.229Z,3700.00
2018-07-03T17:02:44.459Z,3644.00
2018-07-03T17:03:44.606Z,3692.00
2018-07-03T17:04:44.730Z,3640.00
2018-07-03T17:05:44.946Z,3628.00
2018-07-03T17:06:45.192Z,3656.00
2018-07-03T17:07:45.356Z,3620.00
2018-07-03T17:08:45.501Z,3512.00
2018-07-03T17:09:45.751Z,3408.00
2018-07-03T17:10:45.932Z,3392.00
2018-07-03T17:11:46.021Z,3400.00
2018-07-03T17:12:46.208Z,3472.00
2018-07-03T17:13:46.470Z,3500.00
2018-07-03T17:14:46.628Z,3384.00
2018-07-03T17:15:46.834Z,3296.00
2018-07-03T17:16:46.918Z,3272.00
2018-07-03T17:17:47.161Z,3252.00
2018-07-03T17:18:47.298Z,3236.00
2018-07-03T17:19:47.493Z,3220.00
2018-07-03T17:20:47.652Z,3200.00
2018-07-03T17:21:47.809Z,3180.00
2018-07-03T17:22:48.050Z,3160.00
2018-07-03T17:23:48.199Z,3148.00
2018-07-03T17:24:48.318Z,3128.00
2018-07-03T17:25:48.531Z,3112.00
2018-07-03T17:26:48.686Z,3092.00
2018-07-03T17:27:48.970Z,3072.00
2018-07-03T17:28:49.185Z,3060.00
2018-07-03T17:29:49.250Z,3044.00
2018-07-03T17:30:49.437Z,3024.00
2018-07-03T17:31:49.673Z,3000.00
2018-07-03T17:32:49.873Z,2988.00
2018-07-03T17:33:50.305Z,2972.00
2018-07-03T17:34:50.505Z,2952.00
2018-07-03T17:35:50.606Z,2936.00
2018-07-03T17:36:50.711Z,2916.00
2018-07-03T17:37:50.780Z,2900.00
2018-07-03T17:38:51.112Z,2884.00
2018-07-03T17:39:51.151Z,2868.00
2018-07-03T17:40:51.448Z,2852.00
2018-07-03T17:41:51.511Z,2836.00
2018-07-03T17:42:51.699Z,2812.00
2018-07-03T17:43:51.830Z,2800.00
2018-07-03T17:44:52.099Z,2784.00
2018-07-03T17:45:52.211Z,2768.00
2018-07-03T17:46:52.442Z,2752.00
2018-07-03T17:47:52.882Z,2736.00
2018-07-03T17:48:52.802Z,2720.00
2018-07-03T17:49:52.869Z,2700.00
2018-07-03T17:50:52.984Z,2684.00
2018-07-03T17:51:53.218Z,2668.00
2018-07-03T17:52:53.661Z,2648.00
2018-07-03T17:53:53.490Z,2632.00
2018-07-03T17:54:53.716Z,2616.00
2018-07-03T17:55:53.981Z,2600.00
2018-07-03T17:56:54.153Z,2580.00
2018-07-03T17:57:54.335Z,2564.00
2018-07-03T17:58:54.576Z,2548.00
2018-07-03T17:59:54.791Z,2528.00
2018-07-03T18:00:54.976Z,2516.00
2018-07-03T18:01:55.068Z,2492.00
2018-07-03T18:02:55.404Z,2476.00
2018-07-03T18:03:55.433Z,2460.00
2018-07-03T18:04:56.174Z,2444.00
2018-07-03T18:05:55.854Z,2424.00
2018-07-03T18:06:56.096Z,2408.00
2018-07-03T18:07:56.346Z,2388.00
2018-07-03T18:08:56.470Z,2376.00
2018-07-03T18:09:56.659Z,2368.00
2018-07-03T18:10:56.930Z,2392.00
2018-07-03T18:11:57.090Z,2372.00
2018-07-03T18:12:57.126Z,2308.00
2018-07-03T18:13:57.273Z,2284.00
2018-07-03T18:14:57.538Z,2264.00
2018-07-03T18:15:57.725Z,2248.00
2018-07-03T18:16:57.960Z,2232.00
2018-07-03T18:17:58.078Z,2212.00
2018-07-03T18:18:58.326Z,2196.00
2018-07-03T18:19:58.560Z,2176.00
2018-07-03T18:20:58.699Z,2156.00
2018-07-03T18:21:58.895Z,2140.00
2018-07-03T18:22:59.225Z,2120.00
2018-07-03T18:23:59.217Z,2100.00
2018-07-03T18:24:59.614Z,2080.00
2018-07-03T18:25:59.682Z,2060.00
2018-07-03T18:26:59.981Z,2040.00
2018-07-03T18:28:00.044Z,2020.00
2018-07-03T18:29:00.338Z,1996.00
2018-07-03T18:30:00.377Z,1976.00
2018-07-03T18:31:00.632Z,1952.00
2018-07-03T18:32:00.898Z,1928.00
2018-07-03T18:33:01.118Z,1908.00
2018-07-03T18:34:01.284Z,1884.00
2018-07-03T18:35:01.459Z,1864.00
2018-07-03T18:36:01.594Z,1836.00
2018-07-03T18:37:01.785Z,1812.00
2018-07-03T18:38:01.910Z,1784.00
2018-07-03T18:39:02.148Z,1760.00
2018-07-03T18:40:02.221Z,1736.00
2018-07-03T18:41:03.075Z,1708.00
2018-07-03T18:42:02.993Z,1684.00
2018-07-03T18:43:03.016Z,1656.00
2018-07-03T18:44:03.170Z,1632.00
2018-07-03T18:45:03.379Z,1608.00
2018-07-03T18:46:03.594Z,1580.00
2018-07-03T18:47:03.598Z,1552.00
2018-07-03T18:48:04.286Z,1524.00
2018-07-03T18:49:04.079Z,1496.00
2018-07-03T18:50:04.280Z,1472.00
2018-07-03T18:51:04.466Z,1448.00
2018-07-03T18:52:04.624Z,1416.00
2018-07-03T18:53:04.823Z,1388.00
2018-07-03T18:54:05.088Z,1360.00
2018-07-03T18:55:04.992Z,1328.00
2018-07-03T18:56:05.130Z,1300.00
2018-07-03T18:57:05.396Z,1272.00
2018-07-03T18:58:05.382Z,1240.00
2018-07-03T18:59:05.710Z,1212.00
2018-07-03T19:00:05.850Z,1180.00
2018-07-03T19:01:05.954Z,1152.00
2018-07-03T19:02:06.246Z,1124.00
2018-07-03T19:03:06.480Z,1092.00
2018-07-03T19:04:06.634Z,1060.00
2018-07-03T19:05:06.825Z,1036.00
2018-07-03T19:06:07.037Z,1004.00
2018-07-03T19:07:07.296Z,976.00
2018-07-03T19:08:07.599Z,944.00
2018-07-03T19:09:07.651Z,912.00
2018-07-03T19:10:07.912Z,884.00
2018-07-03T19:11:08.069Z,856.00
2018-07-03T19:12:08.180Z,824.00
2018-07-03T19:13:08.498Z,796.00
2018-07-03T19:14:08.585Z,764.00
2018-07-03T19:15:08.906Z,736.00
2018-07-03T19:16:08.940Z,712.00
2018-07-03T19:17:09.334Z,684.00
2018-07-03T19:18:09.366Z,652.00
2018-07-03T19:19:09.518Z,624.00
2018-07-03T19:20:09.691Z,596.00
2018-07-03T19:21:09.891Z,572.00
2018-07-03T19:22:10.035Z,544.00
2018-07-03T19:23:10.214Z,520.00
2018-07-03T19:24:10.553Z,492.00
2018-07-03T19:25:10.631Z,464.00
2018-07-03T19:26:10.867Z,440.00
2018-07-03T19:27:10.917Z,416.00
2018-07-03T19:28:11.282Z,392.00
2018-07-03T19:29:11.337Z,368.00
2018-07-03T19:30:11.442Z,344.00
2018-07-03T19:31:11.648Z,324.00
2018-07-03T19:32:11.854Z,304.00
2018-07-03T19:33:11.920Z,284.00
2018-07-03T19:34:12.264Z,264.00
2018-07-03T19:35:12.290Z,244.00
2018-07-03T19:36:12.611Z,228.00
2018-07-03T19:37:12.797Z,212.00
2018-07-03T19:38:12.834Z,192.00
2018-07-03T19:39:13.156Z,176.00
2018-07-03T19:40:13.189Z,164.00
2018-07-03T19:41:13.505Z,148.00
2018-07-03T19:42:13.709Z,136.00
2018-07-03T19:43:13.889Z,124.00
2018-07-03T19:44:14.193Z,116.00
2018-07-03T19:45:14.321Z,104.00
2018-07-03T19:46:14.523Z,96.00
2018-07-03T19:47:14.741Z,84.00
2018-07-03T19:48:15.223Z,76.00
2018-07-03T19:49:15.174Z,68.00
2018-07-03T19:50:15.300Z,64.00
2018-07-03T19:51:15.489Z,56.00
2018-07-03T19:52:15.683Z,48.00
2018-07-03T19:53:15.948Z,44.00
2018-07-03T19:54:16.304Z,40.00
2018-07-03T19:55:16.355Z,32.00
2018-07-03T19:56:16.672Z,32.00
2018-07-03T19:57:16.458Z,28.00
2018-07-03T19:58:16.736Z,24.00
2018-07-03T19:59:17.009Z,20.00
2018-07-03T20:00:17.921Z,20.00